createdAt,value
2023-06-19T00:00:48.343Z,3.60
2023-06-19T00:01:48.334Z,3.70
2023-06-19T00:02:48.299Z,3.60
2023-06-19T00:03:48.330Z,3.30
2023-06-19T00:04:48.259Z,3.50
2023-06-19T00:05:48.272Z,3.20
2023-06-19T00:06:48.276Z,3.50
2023-06-19T00:07:48.269Z,3.80
2023-06-19T00:08:48.218Z,3.60
2023-06-19T00:09:48.241Z,4.00
2023-06-19T00:10:48.194Z,3.60
2023-06-19T00:11:48.214Z,3.80
2023-06-19T00:12:48.196Z,3.30
2023-06-19T00:13:48.192Z,3.90
2023-06-19T00:14:48.163Z,3.60
2023-06-19T00:15:48.205Z,3.70
2023-06-19T00:16:48.190Z,3.70
2023-06-19T00:17:48.223Z,3.40
2023-06-19T00:18:48.116Z,3.60
2023-06-19T00:19:54.636Z,3.50
2023-06-19T00:20:48.081Z,3.50
2023-06-19T00:21:48.092Z,3.20
2023-06-19T00:22:48.063Z,3.40
2023-06-19T00:23:48.101Z,3.70
2023-06-19T00:24:48.056Z,3.60
2023-06-19T00:25:48.089Z,3.40
2023-06-19T00:26:48.045Z,3.60
2023-06-19T00:27:48.051Z,3.30
2023-06-19T00:28:48.000Z,3.50
2023-06-19T00:29:48.050Z,3.80
2023-06-19T00:30:47.995Z,4.00
2023-06-19T00:31:48.026Z,3.50
2023-06-19T00:32:48.144Z,3.70
2023-06-19T00:33:47.973Z,3.50
2023-06-19T00:34:47.976Z,3.50
2023-06-19T00:35:47.955Z,3.60
2023-06-19T00:36:47.908Z,3.30
2023-06-19T00:37:48.009Z,3.80
2023-06-19T00:38:47.892Z,3.50
2023-06-19T00:39:47.922Z,3.30
2023-06-19T00:40:47.900Z,3.80
2023-06-19T00:41:47.894Z,3.50
2023-06-19T00:42:47.853Z,3.80
2023-06-19T00:43:47.851Z,3.20
2023-06-19T00:44:47.839Z,3.30
2023-06-19T00:45:47.905Z,3.50
2023-06-19T00:46:47.905Z,3.50
2023-06-19T00:47:47.925Z,3.50
2023-06-19T00:48:47.781Z,3.60
2023-06-19T00:49:47.786Z,3.80
2023-06-19T00:50:47.772Z,3.30
2023-06-19T00:51:47.793Z,3.80
2023-06-19T00:52:47.727Z,3.50
2023-06-19T00:53:47.757Z,3.70
2023-06-19T00:54:47.753Z,3.60
2023-06-19T00:55:47.726Z,3.40
2023-06-19T00:56:47.705Z,3.30
2023-06-19T00:57:47.770Z,3.50
2023-06-19T00:58:47.672Z,3.90
2023-06-19T00:59:47.709Z,3.70
2023-06-19T01:00:56.302Z,3.60
2023-06-19T01:01:47.738Z,3.80
2023-06-19T01:02:47.762Z,3.40
2023-06-19T01:03:47.892Z,3.70
2023-06-19T01:04:47.685Z,3.70
2023-06-19T01:05:47.631Z,3.70
2023-06-19T01:06:47.606Z,3.50
2023-06-19T01:07:47.586Z,3.50
2023-06-19T01:08:47.643Z,3.60
2023-06-19T01:09:47.558Z,3.80
2023-06-19T01:10:47.560Z,3.60
2023-06-19T01:11:47.521Z,3.80
2023-06-19T01:12:47.567Z,3.80
2023-06-19T01:13:47.508Z,3.60
2023-06-19T01:14:47.570Z,3.90
2023-06-19T01:15:47.490Z,3.80
2023-06-19T01:16:47.569Z,3.80
2023-06-19T01:17:47.490Z,3.50
2023-06-19T01:18:47.477Z,3.60
2023-06-19T01:19:47.464Z,3.60
2023-06-19T01:20:47.457Z,4.10
2023-06-19T01:21:47.434Z,3.50
2023-06-19T01:22:47.454Z,3.80
2023-06-19T01:23:47.419Z,4.10
2023-06-19T01:24:47.425Z,4.10
2023-06-19T01:25:47.431Z,3.30
2023-06-19T01:26:47.402Z,4.00
2023-06-19T01:27:47.359Z,3.70
2023-06-19T01:28:47.408Z,3.40
2023-06-19T01:29:47.374Z,4.00
2023-06-19T01:30:47.365Z,3.50
2023-06-19T01:31:47.321Z,3.70
2023-06-19T01:32:47.354Z,3.70
2023-06-19T01:33:47.317Z,4.10
2023-06-19T01:34:47.300Z,4.00
2023-06-19T01:35:47.264Z,3.90
2023-06-19T01:36:47.353Z,3.70
2023-06-19T01:37:47.322Z,3.60
2023-06-19T01:38:47.270Z,3.50
2023-06-19T01:39:47.227Z,3.30
2023-06-19T01:40:47.253Z,4.00
2023-06-19T01:41:47.261Z,4.10
2023-06-19T01:42:47.289Z,3.90
2023-06-19T01:43:47.180Z,3.60
2023-06-19T01:44:47.215Z,3.90
2023-06-19T01:45:47.170Z,3.90
2023-06-19T01:46:47.220Z,3.70
2023-06-19T01:47:47.224Z,3.80
2023-06-19T01:48:47.185Z,4.00
2023-06-19T01:49:47.118Z,3.70
2023-06-19T01:50:47.138Z,4.10
2023-06-19T01:51:47.114Z,3.80
2023-06-19T01:52:47.096Z,3.60
2023-06-19T01:53:47.099Z,4.30
2023-06-19T01:54:47.078Z,3.70
2023-06-19T01:55:47.103Z,3.50
2023-06-19T01:56:47.079Z,3.80
2023-06-19T01:57:47.031Z,3.80
2023-06-19T01:58:47.058Z,3.90
2023-06-19T01:59:47.046Z,3.80
2023-06-19T02:00:47.039Z,3.80
2023-06-19T02:01:46.967Z,4.00
2023-06-19T02:02:47.183Z,3.90
2023-06-19T02:03:47.085Z,4.00
2023-06-19T02:04:46.966Z,3.60
2023-06-19T02:05:46.995Z,3.80
2023-06-19T02:06:46.971Z,3.70
2023-06-19T02:07:46.947Z,4.10
2023-06-19T02:08:46.953Z,3.90
2023-06-19T02:09:46.894Z,3.90
2023-06-19T02:10:46.952Z,3.80
2023-06-19T02:11:46.868Z,3.60
2023-06-19T02:12:46.871Z,4.40
2023-06-19T02:13:46.909Z,3.60
2023-06-19T02:14:46.861Z,3.60
2023-06-19T02:15:46.850Z,4.00
2023-06-19T02:16:46.930Z,3.70
2023-06-19T02:17:46.848Z,3.70
2023-06-19T02:18:46.813Z,4.00
2023-06-19T02:19:46.788Z,4.00
2023-06-19T02:20:46.807Z,3.50
2023-06-19T02:21:46.788Z,3.40
2023-06-19T02:22:46.797Z,4.00
2023-06-19T02:23:46.771Z,3.60
2023-06-19T02:24:46.805Z,3.60
2023-06-19T02:25:46.735Z,3.70
2023-06-19T02:26:46.741Z,3.70
2023-06-19T02:27:46.704Z,4.10
2023-06-19T02:28:46.725Z,3.70
2023-06-19T02:29:46.681Z,4.10
2023-06-19T02:30:46.713Z,3.70
2023-06-19T02:31:46.656Z,4.00
2023-06-19T02:32:46.737Z,3.90
2023-06-19T02:33:46.640Z,3.90
2023-06-19T02:34:46.659Z,3.90
2023-06-19T02:35:46.607Z,4.20
2023-06-19T02:36:46.665Z,3.80
2023-06-19T02:37:46.583Z,3.70
2023-06-19T02:38:46.612Z,4.10
2023-06-19T02:39:46.613Z,3.60
2023-06-19T02:40:46.578Z,3.90
2023-06-19T02:41:46.590Z,4.20
2023-06-19T02:42:46.560Z,4.10
2023-06-19T02:43:46.526Z,4.00
2023-06-19T02:44:46.558Z,4.20
2023-06-19T02:45:46.546Z,4.40
2023-06-19T02:46:46.555Z,4.20
2023-06-19T02:47:46.514Z,4.20
2023-06-19T02:48:46.546Z,4.30
2023-06-19T02:49:46.476Z,4.00
2023-06-19T02:50:46.471Z,4.40
2023-06-19T02:51:46.477Z,4.20
2023-06-19T02:52:46.450Z,4.40
2023-06-19T02:53:46.421Z,4.20
2023-06-19T02:54:46.425Z,4.40
2023-06-19T02:55:46.378Z,4.00
2023-06-19T02:56:46.433Z,4.40
2023-06-19T02:57:46.353Z,4.20
2023-06-19T02:58:46.385Z,4.00
2023-06-19T02:59:46.342Z,4.30
2023-06-19T03:00:46.350Z,3.90
2023-06-19T03:01:46.344Z,4.30
2023-06-19T03:02:46.463Z,4.10
2023-06-19T03:03:46.332Z,4.30
2023-06-19T03:04:46.313Z,4.10
2023-06-19T03:05:46.260Z,4.40
2023-06-19T03:06:46.276Z,4.60
2023-06-19T03:07:46.258Z,4.30
2023-06-19T03:08:46.270Z,4.40
2023-06-19T03:09:46.220Z,4.30
2023-06-19T03:10:46.254Z,4.20
2023-06-19T03:11:46.207Z,4.40
2023-06-19T03:12:46.204Z,4.30
2023-06-19T03:13:46.177Z,4.20
2023-06-19T03:14:46.215Z,4.20
2023-06-19T03:15:46.192Z,4.10
2023-06-19T03:16:46.202Z,3.90
2023-06-19T03:17:46.187Z,3.90
2023-06-19T03:18:46.387Z,4.40
2023-06-19T03:19:46.125Z,4.10
2023-06-19T03:20:46.182Z,4.40
2023-06-19T03:21:46.091Z,4.30
2023-06-19T03:22:46.091Z,4.30
2023-06-19T03:23:46.085Z,4.30
2023-06-19T03:24:46.164Z,4.20
2023-06-19T03:25:46.054Z,4.30
2023-06-19T03:26:46.090Z,4.50
2023-06-19T03:27:46.018Z,4.50
2023-06-19T03:28:46.033Z,4.40
2023-06-19T03:29:46.001Z,4.40
2023-06-19T03:30:46.045Z,4.10
2023-06-19T03:31:46.002Z,4.50
2023-06-19T03:32:46.107Z,4.10
2023-06-19T03:33:45.994Z,4.40
2023-06-19T03:34:45.983Z,4.00
2023-06-19T03:35:45.933Z,4.20
2023-06-19T03:36:45.987Z,4.60
2023-06-19T03:37:45.904Z,4.30
2023-06-19T03:38:45.901Z,4.00
2023-06-19T03:39:45.879Z,4.30
2023-06-19T03:40:45.883Z,4.40
2023-06-19T03:41:45.926Z,4.50
2023-06-19T03:42:45.872Z,4.00
2023-06-19T03:43:45.850Z,4.10
2023-06-19T03:44:45.842Z,4.30
2023-06-19T03:45:45.881Z,4.50
2023-06-19T03:46:45.866Z,3.70
2023-06-19T03:47:45.885Z,4.30
2023-06-19T03:48:45.762Z,4.00
2023-06-19T03:49:45.803Z,4.20
2023-06-19T03:50:45.751Z,4.10
2023-06-19T03:51:45.783Z,4.30
2023-06-19T03:52:45.722Z,4.30
2023-06-19T03:53:45.792Z,4.20
2023-06-19T03:54:45.701Z,4.50
2023-06-19T03:55:45.706Z,4.00
2023-06-19T03:56:45.711Z,4.10
2023-06-19T03:57:45.694Z,4.10
2023-06-19T03:58:45.717Z,4.20
2023-06-19T03:59:45.656Z,4.60
2023-06-19T04:00:45.621Z,4.00
2023-06-19T04:01:45.682Z,4.50
2023-06-19T04:02:45.609Z,4.30
2023-06-19T04:03:45.629Z,4.30
2023-06-19T04:04:45.607Z,4.20
2023-06-19T04:05:45.587Z,4.10
2023-06-19T04:06:45.589Z,4.50
2023-06-19T04:07:45.571Z,4.20
2023-06-19T04:08:45.543Z,4.00
2023-06-19T04:09:45.533Z,4.10
2023-06-19T04:10:45.528Z,4.10
2023-06-19T04:11:45.578Z,4.30
2023-06-19T04:12:45.480Z,4.30
2023-06-19T04:13:45.508Z,4.10
2023-06-19T04:14:45.484Z,4.00
2023-06-19T04:15:46.960Z,4.20
2023-06-19T04:16:45.436Z,4.00
2023-06-19T04:17:45.464Z,4.20
2023-06-19T04:18:45.426Z,4.50
2023-06-19T04:19:45.437Z,4.00
2023-06-19T04:20:45.385Z,4.10
2023-06-19T04:21:45.431Z,4.30
2023-06-19T04:22:45.370Z,4.10
2023-06-19T04:23:45.364Z,4.60
2023-06-19T04:24:45.358Z,4.40
2023-06-19T04:25:45.354Z,4.10
2023-06-19T04:26:45.333Z,4.00
2023-06-19T04:27:45.359Z,3.90
2023-06-19T04:28:45.286Z,4.20
2023-06-19T04:29:45.304Z,3.90
2023-06-19T04:30:45.369Z,4.00
2023-06-19T04:31:45.273Z,4.30
2023-06-19T04:32:45.394Z,4.30
2023-06-19T04:33:45.295Z,4.10
2023-06-19T04:34:45.289Z,4.20
2023-06-19T04:35:45.226Z,4.20
2023-06-19T04:36:45.205Z,4.20
2023-06-19T04:37:45.219Z,4.20
2023-06-19T04:38:45.210Z,3.90
2023-06-19T04:39:45.184Z,4.10
2023-06-19T04:40:45.170Z,4.40
2023-06-19T04:41:45.156Z,4.50
2023-06-19T04:42:45.155Z,4.30
2023-06-19T04:43:45.133Z,4.20
2023-06-19T04:44:45.122Z,3.80
2023-06-19T04:45:45.118Z,4.50
2023-06-19T04:46:45.388Z,4.30
2023-06-19T04:47:53.284Z,3.90
2023-06-19T04:48:45.088Z,3.50
2023-06-19T04:49:45.098Z,3.80
2023-06-19T04:50:45.056Z,3.90
2023-06-19T04:51:45.083Z,3.30
2023-06-19T04:52:45.002Z,3.80
2023-06-19T04:53:45.021Z,2.90
2023-06-19T04:54:45.022Z,3.10
2023-06-19T04:55:45.031Z,3.10
2023-06-19T04:56:44.973Z,3.40
2023-06-19T04:57:44.979Z,3.00
2023-06-19T04:58:44.961Z,3.10
2023-06-19T04:59:44.983Z,2.90
2023-06-19T05:00:44.947Z,2.80
2023-06-19T05:01:44.999Z,3.00
2023-06-19T05:02:45.264Z,2.40
2023-06-19T05:03:44.947Z,2.90
2023-06-19T05:04:45.075Z,2.90
2023-06-19T05:05:44.882Z,2.80
2023-06-19T05:06:44.860Z,3.00
2023-06-19T05:07:44.911Z,2.80
2023-06-19T05:08:44.840Z,2.60
2023-06-19T05:09:44.852Z,3.00
2023-06-19T05:10:46.479Z,2.80
2023-06-19T05:11:44.817Z,3.00
2023-06-19T05:12:44.858Z,2.80
2023-06-19T05:13:44.805Z,2.60
2023-06-19T05:14:44.827Z,2.40
2023-06-19T05:15:44.843Z,2.80
2023-06-19T05:16:44.840Z,2.50
2023-06-19T05:17:44.836Z,2.90
2023-06-19T05:18:44.777Z,2.70
2023-06-19T05:19:44.732Z,2.40
2023-06-19T05:20:44.735Z,2.50
2023-06-19T05:21:44.696Z,2.60
2023-06-19T05:22:44.714Z,2.60
2023-06-19T05:23:44.673Z,2.50
2023-06-19T05:24:44.761Z,2.60
2023-06-19T05:25:44.647Z,2.90
2023-06-19T05:26:44.689Z,2.80
2023-06-19T05:27:44.639Z,2.80
2023-06-19T05:28:44.634Z,2.60
2023-06-19T05:29:44.632Z,2.60
2023-06-19T05:30:44.636Z,2.80
2023-06-19T05:31:44.611Z,2.40
2023-06-19T05:32:44.638Z,2.50
2023-06-19T05:33:44.575Z,2.70
2023-06-19T05:34:44.579Z,2.90
2023-06-19T05:35:44.565Z,2.80
2023-06-19T05:36:44.554Z,3.00
2023-06-19T05:37:44.527Z,2.60
2023-06-19T05:38:44.567Z,2.50
2023-06-19T05:39:44.497Z,2.60
2023-06-19T05:40:44.505Z,2.70
2023-06-19T05:41:44.492Z,2.70
2023-06-19T05:42:44.520Z,3.00
2023-06-19T05:43:44.501Z,2.80
2023-06-19T05:44:44.461Z,2.70
2023-06-19T05:45:44.521Z,2.90
2023-06-19T05:46:44.524Z,2.80
2023-06-19T05:47:44.477Z,2.70
2023-06-19T05:48:44.416Z,2.80
2023-06-19T05:49:44.390Z,2.70
2023-06-19T05:50:44.389Z,2.90
2023-06-19T05:51:44.387Z,3.00
2023-06-19T05:52:44.431Z,3.00
2023-06-19T05:53:44.348Z,3.10
2023-06-19T05:54:44.434Z,3.10
2023-06-19T05:55:44.318Z,3.20
2023-06-19T05:56:44.325Z,2.80
2023-06-19T05:57:44.316Z,3.10
2023-06-19T05:58:44.329Z,3.00
2023-06-19T05:59:44.280Z,3.10
2023-06-19T06:00:44.297Z,2.90
2023-06-19T06:01:44.316Z,2.90
2023-06-19T06:02:44.319Z,2.70
2023-06-19T06:03:44.232Z,2.80
2023-06-19T06:04:44.315Z,3.20
2023-06-19T06:05:44.208Z,2.90
2023-06-19T06:06:44.210Z,3.30
2023-06-19T06:07:44.194Z,2.90
2023-06-19T06:08:44.200Z,3.10
2023-06-19T06:09:44.221Z,3.10
2023-06-19T06:10:44.195Z,3.20
2023-06-19T06:11:44.145Z,3.00
2023-06-19T06:12:44.199Z,3.10
2023-06-19T06:13:44.108Z,3.00
2023-06-19T06:14:44.179Z,2.90
2023-06-19T06:15:44.117Z,3.40
2023-06-19T06:16:44.177Z,2.80
2023-06-19T06:17:44.176Z,3.10
2023-06-19T06:18:44.133Z,3.20
2023-06-19T06:19:50.092Z,3.10
2023-06-19T06:20:44.796Z,3.10
2023-06-19T06:21:45.685Z,3.10
2023-06-19T06:22:44.102Z,2.90
2023-06-19T06:23:44.001Z,2.70
2023-06-19T06:24:44.082Z,2.70
2023-06-19T06:25:43.983Z,3.10
2023-06-19T06:26:44.023Z,2.80
2023-06-19T06:27:43.995Z,2.70
2023-06-19T06:28:43.989Z,2.90
2023-06-19T06:29:43.978Z,2.70
2023-06-19T06:30:43.954Z,3.10
2023-06-19T06:31:43.914Z,2.70
2023-06-19T06:32:43.970Z,2.60
2023-06-19T06:33:43.916Z,2.60
2023-06-19T06:34:43.902Z,2.50
2023-06-19T06:35:43.865Z,2.80
2023-06-19T06:36:52.907Z,2.40
2023-06-19T06:37:43.846Z,2.60
2023-06-19T06:38:43.878Z,2.70
2023-06-19T06:39:43.821Z,2.70
2023-06-19T06:40:43.855Z,2.70
2023-06-19T06:41:43.794Z,2.70
2023-06-19T06:42:43.814Z,2.80
2023-06-19T06:43:43.775Z,2.80
2023-06-19T06:44:43.833Z,2.60
2023-06-19T06:45:44.005Z,2.40
2023-06-19T06:46:43.784Z,2.60
2023-06-19T06:47:43.784Z,2.40
2023-06-19T06:48:43.761Z,3.00
2023-06-19T06:49:43.708Z,2.60
2023-06-19T06:50:43.745Z,2.40
2023-06-19T06:51:43.685Z,2.90
2023-06-19T06:52:43.713Z,2.70
2023-06-19T06:53:43.669Z,2.70
2023-06-19T06:54:43.708Z,2.60
2023-06-19T06:55:43.675Z,2.50
2023-06-19T06:56:43.653Z,2.40
2023-06-19T06:57:43.634Z,2.50
2023-06-19T06:58:43.637Z,2.30
2023-06-19T06:59:43.616Z,2.60
2023-06-19T07:00:43.655Z,2.40
2023-06-19T07:01:43.619Z,2.60
2023-06-19T07:02:43.706Z,2.50
2023-06-19T07:03:43.655Z,2.60
2023-06-19T07:04:43.577Z,2.50
2023-06-19T07:05:43.538Z,2.60
2023-06-19T07:06:43.554Z,2.40
2023-06-19T07:07:43.542Z,2.50
2023-06-19T07:08:43.530Z,2.40
2023-06-19T07:09:43.514Z,2.30
2023-06-19T07:10:43.524Z,2.40
2023-06-19T07:11:43.516Z,2.30
2023-06-19T07:12:43.538Z,2.40
2023-06-19T07:13:43.460Z,2.50
2023-06-19T07:14:43.480Z,2.30
2023-06-19T07:15:43.459Z,2.30
2023-06-19T07:16:43.512Z,2.50
2023-06-19T07:17:43.585Z,2.30
2023-06-19T07:18:43.464Z,2.40
2023-06-19T07:19:43.417Z,2.50
2023-06-19T07:20:43.420Z,2.30
2023-06-19T07:21:43.393Z,2.40
2023-06-19T07:22:43.390Z,2.30
2023-06-19T07:23:43.397Z,2.20
2023-06-19T07:24:43.541Z,2.20
2023-06-19T07:25:43.342Z,2.20
2023-06-19T07:26:43.364Z,2.20
2023-06-19T07:27:43.338Z,2.00
2023-06-19T07:28:43.341Z,2.10
2023-06-19T07:29:43.341Z,2.10
2023-06-19T07:30:43.328Z,2.00
2023-06-19T07:31:43.272Z,2.00
2023-06-19T07:32:43.356Z,2.10
2023-06-19T07:33:43.258Z,2.20
2023-06-19T07:34:43.278Z,2.30
2023-06-19T07:35:43.273Z,2.10
2023-06-19T07:36:43.298Z,2.10
2023-06-19T07:37:43.209Z,2.10
2023-06-19T07:38:43.223Z,2.00
2023-06-19T07:39:43.209Z,2.10
2023-06-19T07:40:43.231Z,1.90
2023-06-19T07:41:43.192Z,2.10
2023-06-19T07:42:44.767Z,2.40
2023-06-19T07:43:43.149Z,2.40
2023-06-19T07:44:43.171Z,2.00
2023-06-19T07:45:43.196Z,2.10
2023-06-19T07:46:43.156Z,2.00
2023-06-19T07:47:43.163Z,2.10
2023-06-19T07:48:43.104Z,2.00
2023-06-19T07:49:43.110Z,2.00
2023-06-19T07:50:43.109Z,2.00
2023-06-19T07:51:43.100Z,2.00
2023-06-19T07:52:43.118Z,2.00
2023-06-19T07:53:43.024Z,2.10
2023-06-19T07:54:43.050Z,2.00
2023-06-19T07:55:43.006Z,1.90
2023-06-19T07:56:43.027Z,2.10
2023-06-19T07:57:42.991Z,2.00
2023-06-19T07:58:43.017Z,2.20
2023-06-19T07:59:42.966Z,1.90
2023-06-19T08:00:42.972Z,2.20
2023-06-19T08:01:42.962Z,2.30
2023-06-19T08:02:43.061Z,2.20
2023-06-19T08:03:42.980Z,2.10
2023-06-19T08:04:42.957Z,2.40
2023-06-19T08:05:42.898Z,1.90
2023-06-19T08:06:42.918Z,2.00
2023-06-19T08:07:42.873Z,2.20
2023-06-19T08:08:42.894Z,2.10
2023-06-19T08:09:42.891Z,1.90
2023-06-19T08:10:42.875Z,1.80
2023-06-19T08:11:42.829Z,1.80
2023-06-19T08:12:42.843Z,1.90
2023-06-19T08:13:42.817Z,2.10
2023-06-19T08:14:42.812Z,1.80
2023-06-19T08:15:42.824Z,1.90
2023-06-19T08:16:42.808Z,2.00
2023-06-19T08:17:42.789Z,2.20
2023-06-19T08:18:42.790Z,2.10
2023-06-19T08:19:42.754Z,1.80
2023-06-19T08:20:42.791Z,1.90
2023-06-19T08:21:42.748Z,2.00
2023-06-19T08:22:42.739Z,1.90
2023-06-19T08:23:42.712Z,1.90
2023-06-19T08:24:42.746Z,2.00
2023-06-19T08:25:42.688Z,2.00
2023-06-19T08:26:42.711Z,2.10
2023-06-19T08:27:42.719Z,1.80
2023-06-19T08:28:42.722Z,2.00
2023-06-19T08:29:42.637Z,1.80
2023-06-19T08:30:42.650Z,1.80
2023-06-19T08:31:42.614Z,1.60
2023-06-19T08:32:42.671Z,2.00
2023-06-19T08:33:42.628Z,1.80
2023-06-19T08:34:42.618Z,1.70
2023-06-19T08:35:42.578Z,2.00
2023-06-19T08:36:42.582Z,1.90
2023-06-19T08:37:42.554Z,1.90
2023-06-19T08:38:42.593Z,1.90
2023-06-19T08:39:42.525Z,1.90
2023-06-19T08:40:42.553Z,1.90
2023-06-19T08:41:42.497Z,2.20
2023-06-19T08:42:42.531Z,1.90
2023-06-19T08:43:42.484Z,1.90
2023-06-19T08:44:42.547Z,1.80
2023-06-19T08:45:42.475Z,1.90
2023-06-19T08:46:42.539Z,1.90
2023-06-19T08:47:42.482Z,1.80
2023-06-19T08:48:42.471Z,1.90
2023-06-19T08:49:42.424Z,1.80
2023-06-19T08:50:42.458Z,2.00
2023-06-19T08:51:42.405Z,2.00
2023-06-19T08:52:42.414Z,2.00
2023-06-19T08:53:42.390Z,1.80
2023-06-19T08:54:42.398Z,1.90
2023-06-19T08:55:42.386Z,1.90
2023-06-19T08:56:42.398Z,1.80
2023-06-19T08:57:42.333Z,1.70
2023-06-19T08:58:42.351Z,1.90
2023-06-19T08:59:42.351Z,1.90
2023-06-19T09:00:42.335Z,1.70
2023-06-19T09:01:42.326Z,1.80
2023-06-19T09:02:42.520Z,1.70
2023-06-19T09:03:42.364Z,1.90
2023-06-19T09:04:42.299Z,1.90
2023-06-19T09:05:42.773Z,1.80
2023-06-19T09:06:42.354Z,1.80
2023-06-19T09:07:42.259Z,1.80
2023-06-19T09:08:42.247Z,2.00
2023-06-19T09:09:42.204Z,1.80
2023-06-19T09:10:42.239Z,1.80
2023-06-19T09:11:42.204Z,2.00
2023-06-19T09:12:42.226Z,2.00
2023-06-19T09:13:42.168Z,1.80
2023-06-19T09:14:42.175Z,1.90
2023-06-19T09:15:42.145Z,1.80
2023-06-19T09:16:42.205Z,1.90
2023-06-19T09:17:42.191Z,1.90
2023-06-19T09:18:42.145Z,2.00
2023-06-19T09:19:42.103Z,1.90
2023-06-19T09:20:42.125Z,1.70
2023-06-19T09:21:42.082Z,2.20
2023-06-19T09:22:42.161Z,1.90
2023-06-19T09:23:42.054Z,1.50
2023-06-19T09:24:42.284Z,1.60
2023-06-19T09:25:42.030Z,1.90
2023-06-19T09:26:42.046Z,1.70
2023-06-19T09:27:42.051Z,1.80
2023-06-19T09:28:42.037Z,1.60
2023-06-19T09:29:41.998Z,2.10
2023-06-19T09:30:42.003Z,1.90
2023-06-19T09:31:41.972Z,1.90
2023-06-19T09:32:42.056Z,1.90
2023-06-19T09:33:42.049Z,1.80
2023-06-19T09:34:41.939Z,1.70
2023-06-19T09:35:41.948Z,1.80
2023-06-19T09:36:41.920Z,1.90
2023-06-19T09:37:41.924Z,1.90
2023-06-19T09:38:42.282Z,1.80
2023-06-19T09:39:41.941Z,1.80
2023-06-19T09:40:41.870Z,1.80
2023-06-19T09:41:41.887Z,2.00
2023-06-19T09:42:41.846Z,1.50
2023-06-19T09:43:41.861Z,1.70
2023-06-19T09:44:46.118Z,1.90
2023-06-19T09:45:41.863Z,2.00
2023-06-19T09:46:41.841Z,1.90
2023-06-19T09:47:41.900Z,1.80
2023-06-19T09:48:41.803Z,2.00
2023-06-19T09:49:41.793Z,1.70
2023-06-19T09:50:41.794Z,2.00
2023-06-19T09:51:41.777Z,1.80
2023-06-19T09:52:41.748Z,1.70
2023-06-19T09:53:41.870Z,1.80
2023-06-19T09:54:41.721Z,1.90
2023-06-19T09:55:41.768Z,1.70
2023-06-19T09:56:41.702Z,1.90
2023-06-19T09:57:41.715Z,1.80
2023-06-19T09:58:41.682Z,1.80
2023-06-19T09:59:41.686Z,1.70
2023-06-19T10:00:41.663Z,1.80
2023-06-19T10:01:41.694Z,2.10
2023-06-19T10:02:41.717Z,1.70
2023-06-19T10:03:41.715Z,1.70
2023-06-19T10:04:41.612Z,1.70
2023-06-19T10:05:41.626Z,1.90
2023-06-19T10:06:41.594Z,1.80
2023-06-19T10:07:41.630Z,1.90
2023-06-19T10:08:41.585Z,1.70
2023-06-19T10:09:41.587Z,1.70
2023-06-19T10:10:41.559Z,1.90
2023-06-19T10:11:41.568Z,1.80
2023-06-19T10:12:41.535Z,1.70
2023-06-19T10:13:41.567Z,1.80
2023-06-19T10:14:41.512Z,2.00
2023-06-19T10:15:41.534Z,1.70
2023-06-19T10:16:41.528Z,1.50
2023-06-19T10:17:41.580Z,1.90
2023-06-19T10:18:41.499Z,1.90
2023-06-19T10:19:41.490Z,2.00
2023-06-19T10:20:46.851Z,1.80
2023-06-19T10:21:41.459Z,1.80
2023-06-19T10:22:41.429Z,1.80
2023-06-19T10:23:41.466Z,1.80
2023-06-19T10:24:41.562Z,1.90
2023-06-19T10:25:41.425Z,1.90
2023-06-19T10:26:41.409Z,1.80
2023-06-19T10:27:43.178Z,1.80
2023-06-19T10:28:41.438Z,1.90
2023-06-19T10:29:42.445Z,1.70
2023-06-19T10:30:41.367Z,2.00
2023-06-19T10:31:41.364Z,2.00
2023-06-19T10:32:41.362Z,1.90
2023-06-19T10:33:41.604Z,1.70
2023-06-19T10:34:41.312Z,1.60
2023-06-19T10:35:41.375Z,2.00
2023-06-19T10:36:41.294Z,1.90
2023-06-19T10:37:41.305Z,1.80
2023-06-19T10:38:41.287Z,1.80
2023-06-19T10:39:41.278Z,1.70
2023-06-19T10:40:41.264Z,1.60
2023-06-19T10:41:41.269Z,1.90
2023-06-19T10:42:41.238Z,1.60
2023-06-19T10:43:41.241Z,1.70
2023-06-19T10:44:41.236Z,1.90
2023-06-19T10:45:41.269Z,1.70
2023-06-19T10:46:41.185Z,1.60
2023-06-19T10:47:41.244Z,1.60
2023-06-19T10:48:41.179Z,1.60
2023-06-19T10:49:41.169Z,1.90
2023-06-19T10:50:41.161Z,1.90
2023-06-19T10:51:41.181Z,1.70
2023-06-19T10:52:41.107Z,1.60
2023-06-19T10:53:41.142Z,1.70
2023-06-19T10:54:41.098Z,1.70
2023-06-19T10:55:41.096Z,1.60
2023-06-19T10:56:41.121Z,1.80
2023-06-19T10:57:41.100Z,1.70
2023-06-19T10:58:41.044Z,1.90
2023-06-19T10:59:41.059Z,1.90
2023-06-19T11:00:41.030Z,1.70
2023-06-19T11:01:41.147Z,1.90
2023-06-19T11:02:41.108Z,1.80
2023-06-19T11:03:41.050Z,1.50
2023-06-19T11:04:40.985Z,1.60
2023-06-19T11:05:40.993Z,2.00
2023-06-19T11:06:40.991Z,1.70
2023-06-19T11:07:40.984Z,1.60
2023-06-19T11:08:40.951Z,1.90
2023-06-19T11:09:43.169Z,1.60
2023-06-19T11:10:40.909Z,1.80
2023-06-19T11:11:40.942Z,1.80
2023-06-19T11:12:40.897Z,1.60
2023-06-19T11:13:40.916Z,1.80
2023-06-19T11:14:40.917Z,2.00
2023-06-19T11:15:40.912Z,1.80
2023-06-19T11:16:40.905Z,1.60
2023-06-19T11:17:40.923Z,1.50
2023-06-19T11:18:40.869Z,1.60
2023-06-19T11:19:40.842Z,1.80
2023-06-19T11:20:40.822Z,1.60
2023-06-19T11:21:40.839Z,1.80
2023-06-19T11:22:40.791Z,1.60
2023-06-19T11:23:40.804Z,1.60
2023-06-19T11:24:40.828Z,1.70
2023-06-19T11:25:40.786Z,1.50
2023-06-19T11:26:40.752Z,1.90
2023-06-19T11:27:40.797Z,1.70
2023-06-19T11:28:41.424Z,1.60
2023-06-19T11:29:40.751Z,1.70
2023-06-19T11:30:40.753Z,1.70
2023-06-19T11:31:40.728Z,1.80
2023-06-19T11:32:40.709Z,1.50
2023-06-19T11:33:40.704Z,1.70
2023-06-19T11:34:40.687Z,1.70
2023-06-19T11:35:40.666Z,1.70
2023-06-19T11:36:40.667Z,1.70
2023-06-19T11:37:40.653Z,1.50
2023-06-19T11:38:40.622Z,1.70
2023-06-19T11:39:40.632Z,1.70
2023-06-19T11:40:40.591Z,1.60
2023-06-19T11:41:40.711Z,1.70
2023-06-19T11:42:40.592Z,1.70
2023-06-19T11:43:40.590Z,1.40
2023-06-19T11:44:40.545Z,1.70
2023-06-19T11:45:40.567Z,1.90
2023-06-19T11:46:40.551Z,1.60
2023-06-19T11:47:40.553Z,1.70
2023-06-19T11:48:40.496Z,1.40
2023-06-19T11:49:40.516Z,1.50
2023-06-19T11:50:40.497Z,1.70
2023-06-19T11:51:40.526Z,1.40
2023-06-19T11:52:40.470Z,1.60
2023-06-19T11:53:40.469Z,1.80
2023-06-19T11:54:40.441Z,1.80
2023-06-19T11:55:40.458Z,1.80
2023-06-19T11:56:40.433Z,1.90
2023-06-19T11:57:40.457Z,1.90
2023-06-19T11:58:40.415Z,1.80
2023-06-19T11:59:40.434Z,1.60
2023-06-19T12:00:40.383Z,1.40
2023-06-19T12:01:40.419Z,1.50
2023-06-19T12:02:40.509Z,1.70
2023-06-19T12:03:41.678Z,1.80
2023-06-19T12:04:40.449Z,1.60
2023-06-19T12:05:40.347Z,1.60
2023-06-19T12:06:40.328Z,1.60
2023-06-19T12:07:40.317Z,1.70
2023-06-19T12:08:40.328Z,1.80
2023-06-19T12:09:40.305Z,1.60
2023-06-19T12:10:40.273Z,2.00
2023-06-19T12:11:40.306Z,1.80
2023-06-19T12:12:40.247Z,1.60
2023-06-19T12:13:40.259Z,1.70
2023-06-19T12:14:40.253Z,1.70
2023-06-19T12:15:40.263Z,1.70
2023-06-19T12:16:40.264Z,1.40
2023-06-19T12:17:40.249Z,1.70
2023-06-19T12:18:40.178Z,1.60
2023-06-19T12:19:40.188Z,1.70
2023-06-19T12:20:46.733Z,1.80
2023-06-19T12:21:43.162Z,1.50
2023-06-19T12:22:40.149Z,1.70
2023-06-19T12:23:40.145Z,1.70
2023-06-19T12:24:40.265Z,1.80
2023-06-19T12:25:40.156Z,1.50
2023-06-19T12:26:40.097Z,1.60
2023-06-19T12:27:40.109Z,1.60
2023-06-19T12:28:40.071Z,1.50
2023-06-19T12:29:40.086Z,1.70
2023-06-19T12:30:40.096Z,1.70
2023-06-19T12:31:40.158Z,1.60
2023-06-19T12:32:40.117Z,1.60
2023-06-19T12:33:40.074Z,1.70
2023-06-19T12:34:40.024Z,1.70
2023-06-19T12:35:40.054Z,1.80
2023-06-19T12:36:39.985Z,1.70
2023-06-19T12:37:40.041Z,1.70
2023-06-19T12:38:39.964Z,1.70
2023-06-19T12:39:39.969Z,1.80
2023-06-19T12:40:39.963Z,1.70
2023-06-19T12:41:39.971Z,1.50
2023-06-19T12:42:39.951Z,1.70
2023-06-19T12:43:39.941Z,1.80
2023-06-19T12:44:39.917Z,1.70
2023-06-19T12:45:39.905Z,1.80
2023-06-19T12:46:39.995Z,1.70
2023-06-19T12:47:39.906Z,1.70
2023-06-19T12:48:39.911Z,1.60
2023-06-19T12:49:39.896Z,1.70
2023-06-19T12:50:39.899Z,1.60
2023-06-19T12:51:39.848Z,1.70
2023-06-19T12:52:39.816Z,1.80
2023-06-19T12:53:39.827Z,1.50
2023-06-19T12:54:39.810Z,1.80
2023-06-19T12:55:52.456Z,1.40
2023-06-19T12:56:39.776Z,2.10
2023-06-19T12:57:39.794Z,1.70
2023-06-19T12:58:39.757Z,1.60
2023-06-19T12:59:39.780Z,1.50
2023-06-19T13:00:39.758Z,1.60
2023-06-19T13:01:39.783Z,1.40
2023-06-19T13:02:39.782Z,1.70
2023-06-19T13:03:39.880Z,1.70
2023-06-19T13:04:39.697Z,1.50
2023-06-19T13:05:39.723Z,1.50
2023-06-19T13:06:39.711Z,1.50
2023-06-19T13:07:39.728Z,1.40
2023-06-19T13:08:39.654Z,1.60
2023-06-19T13:09:39.667Z,1.50
2023-06-19T13:10:39.626Z,1.60
2023-06-19T13:11:39.685Z,1.90
2023-06-19T13:12:39.640Z,1.90
2023-06-19T13:13:39.629Z,1.60
2023-06-19T13:14:39.605Z,1.70
2023-06-19T13:15:39.661Z,1.40
2023-06-19T13:17:39.657Z,1.50
2023-06-19T13:18:39.568Z,1.50
2023-06-19T13:19:39.557Z,1.50